sensor_id;sensor_type;location;lat;lon;timestamp;P1;durP1;ratioP1;P2;durP2;ratioP2
49578;SDS011;35483;50.828;3.228;2023-06-22T00:00:55;4.13;;;3.35;;
49578;SDS011;35483;50.828;3.228;2023-06-22T00:03:22;5.05;;;3.35;;
49578;SDS011;35483;50.828;3.228;2023-06-22T00:05:49;4.05;;;3.30;;
49578;SDS011;35483;50.828;3.228;2023-06-22T00:08:16;7.75;;;3.50;;
49578;SDS011;35483;50.828;3.228;2023-06-22T00:10:42;5.22;;;3.58;;
49578;SDS011;35483;50.828;3.228;2023-06-22T00:13:09;7.10;;;3.80;;
49578;SDS011;35483;50.828;3.228;2023-06-22T00:15:35;5.32;;;3.92;;
49578;SDS011;35483;50.828;3.228;2023-06-22T00:18:02;4.80;;;3.60;;
49578;SDS011;35483;50.828;3.228;2023-06-22T00:20:28;4.85;;;4.03;;
49578;SDS011;35483;50.828;3.228;2023-06-22T00:22:55;4.78;;;3.35;;
49578;SDS011;35483;50.828;3.228;2023-06-22T00:25:21;5.45;;;3.70;;
49578;SDS011;35483;50.828;3.228;2023-06-22T00:27:47;4.38;;;3.70;;
49578;SDS011;35483;50.828;3.228;2023-06-22T00:30:14;3.80;;;3.38;;
49578;SDS011;35483;50.828;3.228;2023-06-22T00:32:41;6.55;;;3.58;;
49578;SDS011;35483;50.828;3.228;2023-06-22T00:35:07;4.55;;;3.55;;
49578;SDS011;35483;50.828;3.228;2023-06-22T00:37:33;5.63;;;3.63;;
49578;SDS011;35483;50.828;3.228;2023-06-22T00:40:01;4.50;;;3.33;;
49578;SDS011;35483;50.828;3.228;2023-06-22T00:42:27;5.32;;;3.40;;
49578;SDS011;35483;50.828;3.228;2023-06-22T00:44:53;5.53;;;3.30;;
49578;SDS011;35483;50.828;3.228;2023-06-22T00:47:19;4.40;;;3.40;;
49578;SDS011;35483;50.828;3.228;2023-06-22T00:49:45;6.88;;;4.20;;
49578;SDS011;35483;50.828;3.228;2023-06-22T00:52:13;5.85;;;3.83;;
49578;SDS011;35483;50.828;3.228;2023-06-22T00:54:46;5.13;;;3.58;;
49578;SDS011;35483;50.828;3.228;2023-06-22T00:57:16;5.20;;;3.63;;
49578;SDS011;35483;50.828;3.228;2023-06-22T00:59:47;5.00;;;3.47;;
49578;SDS011;35483;50.828;3.228;2023-06-22T01:02:14;4.80;;;3.60;;
49578;SDS011;35483;50.828;3.228;2023-06-22T01:04:40;4.00;;;3.47;;
49578;SDS011;35483;50.828;3.228;2023-06-22T01:10:07;4.72;;;3.80;;
49578;SDS011;35483;50.828;3.228;2023-06-22T01:12:47;6.05;;;4.55;;
49578;SDS011;35483;50.828;3.228;2023-06-22T01:15:31;6.18;;;4.88;;
49578;SDS011;35483;50.828;3.228;2023-06-22T01:18:05;5.53;;;4.50;;
49578;SDS011;35483;50.828;3.228;2023-06-22T01:20:34;6.60;;;4.60;;
49578;SDS011;35483;50.828;3.228;2023-06-22T01:23:20;5.30;;;4.80;;
49578;SDS011;35483;50.828;3.228;2023-06-22T01:26:02;6.95;;;4.90;;
49578;SDS011;35483;50.828;3.228;2023-06-22T01:28:49;6.57;;;5.53;;
49578;SDS011;35483;50.828;3.228;2023-06-22T01:31:18;6.47;;;5.40;;
49578;SDS011;35483;50.828;3.228;2023-06-22T01:33:55;6.10;;;5.50;;
49578;SDS011;35483;50.828;3.228;2023-06-22T01:36:24;6.18;;;5.10;;
49578;SDS011;35483;50.828;3.228;2023-06-22T01:38:52;6.00;;;5.25;;
49578;SDS011;35483;50.828;3.228;2023-06-22T01:41:19;6.90;;;5.00;;
49578;SDS011;35483;50.828;3.228;2023-06-22T01:43:46;5.68;;;4.60;;
49578;SDS011;35483;50.828;3.228;2023-06-22T01:46:13;7.13;;;4.78;;
49578;SDS011;35483;50.828;3.228;2023-06-22T01:48:39;7.93;;;4.57;;
49578;SDS011;35483;50.828;3.228;2023-06-22T01:51:05;9.52;;;5.10;;
49578;SDS011;35483;50.828;3.228;2023-06-22T01:53:31;6.90;;;4.85;;
49578;SDS011;35483;50.828;3.228;2023-06-22T01:55:57;5.85;;;4.57;;
49578;SDS011;35483;50.828;3.228;2023-06-22T01:58:25;5.70;;;4.80;;
49578;SDS011;35483;50.828;3.228;2023-06-22T02:01:09;7.18;;;4.97;;
49578;SDS011;35483;50.828;3.228;2023-06-22T02:03:59;5.93;;;4.63;;
49578;SDS011;35483;50.828;3.228;2023-06-22T02:06:31;5.00;;;4.20;;
49578;SDS011;35483;50.828;3.228;2023-06-22T02:09:02;6.32;;;4.68;;
49578;SDS011;35483;50.828;3.228;2023-06-22T02:11:34;6.30;;;4.63;;
49578;SDS011;35483;50.828;3.228;2023-06-22T02:14:01;6.53;;;4.80;;
49578;SDS011;35483;50.828;3.228;2023-06-22T02:16:27;7.18;;;4.68;;
49578;SDS011;35483;50.828;3.228;2023-06-22T02:18:56;7.05;;;4.75;;
49578;SDS011;35483;50.828;3.228;2023-06-22T02:21:23;7.22;;;4.72;;
49578;SDS011;35483;50.828;3.228;2023-06-22T02:23:49;6.38;;;5.00;;
49578;SDS011;35483;50.828;3.228;2023-06-22T02:26:16;6.38;;;4.65;;
49578;SDS011;35483;50.828;3.228;2023-06-22T02:28:42;6.85;;;4.78;;
49578;SDS011;35483;50.828;3.228;2023-06-22T02:31:09;4.97;;;4.47;;
49578;SDS011;35483;50.828;3.228;2023-06-22T02:33:34;7.55;;;5.25;;
49578;SDS011;35483;50.828;3.228;2023-06-22T02:36:00;6.93;;;5.03;;
49578;SDS011;35483;50.828;3.228;2023-06-22T02:38:30;6.50;;;5.43;;
49578;SDS011;35483;50.828;3.228;2023-06-22T02:41:00;6.85;;;4.50;;
49578;SDS011;35483;50.828;3.228;2023-06-22T02:43:26;7.88;;;5.43;;
49578;SDS011;35483;50.828;3.228;2023-06-22T02:45:51;6.68;;;4.75;;
49578;SDS011;35483;50.828;3.228;2023-06-22T02:48:17;8.18;;;4.97;;
49578;SDS011;35483;50.828;3.228;2023-06-22T02:50:43;7.57;;;5.00;;
49578;SDS011;35483;50.828;3.228;2023-06-22T02:53:09;6.88;;;4.93;;
49578;SDS011;35483;50.828;3.228;2023-06-22T02:55:35;6.90;;;5.00;;
49578;SDS011;35483;50.828;3.228;2023-06-22T02:58:00;7.68;;;5.18;;
49578;SDS011;35483;50.828;3.228;2023-06-22T03:00:30;6.30;;;5.03;;
49578;SDS011;35483;50.828;3.228;2023-06-22T03:02:56;8.50;;;5.97;;
49578;SDS011;35483;50.828;3.228;2023-06-22T03:05:22;7.47;;;4.93;;
49578;SDS011;35483;50.828;3.228;2023-06-22T03:07:48;6.72;;;5.30;;
49578;SDS011;35483;50.828;3.228;2023-06-22T03:10:14;6.50;;;5.05;;
49578;SDS011;35483;50.828;3.228;2023-06-22T03:12:41;7.85;;;5.40;;
49578;SDS011;35483;50.828;3.228;2023-06-22T03:15:10;9.50;;;5.88;;
49578;SDS011;35483;50.828;3.228;2023-06-22T03:17:37;9.27;;;5.78;;
49578;SDS011;35483;50.828;3.228;2023-06-22T03:20:05;8.70;;;5.80;;
49578;SDS011;35483;50.828;3.228;2023-06-22T03:22:39;8.55;;;6.45;;
49578;SDS011;35483;50.828;3.228;2023-06-22T03:25:06;9.85;;;6.05;;
49578;SDS011;35483;50.828;3.228;2023-06-22T03:27:35;9.95;;;6.72;;
49578;SDS011;35483;50.828;3.228;2023-06-22T03:30:01;8.15;;;6.47;;
49578;SDS011;35483;50.828;3.228;2023-06-22T03:32:27;9.85;;;6.30;;
49578;SDS011;35483;50.828;3.228;2023-06-22T03:34:53;8.82;;;6.07;;
49578;SDS011;35483;50.828;3.228;2023-06-22T03:37:19;11.55;;;7.22;;
49578;SDS011;35483;50.828;3.228;2023-06-22T03:39:45;9.75;;;6.97;;
49578;SDS011;35483;50.828;3.228;2023-06-22T03:42:10;8.75;;;6.70;;
49578;SDS011;35483;50.828;3.228;2023-06-22T03:44:36;7.97;;;6.10;;
49578;SDS011;35483;50.828;3.228;2023-06-22T03:47:03;7.65;;;6.25;;
49578;SDS011;35483;50.828;3.228;2023-06-22T03:49:29;8.60;;;7.10;;
49578;SDS011;35483;50.828;3.228;2023-06-22T03:51:55;9.05;;;6.63;;
49578;SDS011;35483;50.828;3.228;2023-06-22T03:54:21;11.27;;;6.50;;
49578;SDS011;35483;50.828;3.228;2023-06-22T03:56:47;9.95;;;6.80;;
49578;SDS011;35483;50.828;3.228;2023-06-22T03:59:12;8.68;;;6.57;;
49578;SDS011;35483;50.828;3.228;2023-06-22T04:01:38;9.52;;;6.68;;
49578;SDS011;35483;50.828;3.228;2023-06-22T04:04:04;9.60;;;6.47;;
49578;SDS011;35483;50.828;3.228;2023-06-22T04:06:30;10.35;;;7.03;;
49578;SDS011;35483;50.828;3.228;2023-06-22T04:08:56;7.60;;;5.85;;
49578;SDS011;35483;50.828;3.228;2023-06-22T04:11:22;10.52;;;7.03;;
49578;SDS011;35483;50.828;3.228;2023-06-22T04:13:47;8.55;;;5.95;;
49578;SDS011;35483;50.828;3.228;2023-06-22T04:16:14;7.35;;;5.65;;
49578;SDS011;35483;50.828;3.228;2023-06-22T04:18:39;9.52;;;5.95;;
49578;SDS011;35483;50.828;3.228;2023-06-22T04:21:06;7.55;;;6.00;;
49578;SDS011;35483;50.828;3.228;2023-06-22T04:23:32;11.05;;;6.32;;
49578;SDS011;35483;50.828;3.228;2023-06-22T04:25:58;9.07;;;6.30;;
49578;SDS011;35483;50.828;3.228;2023-06-22T04:28:26;8.95;;;6.35;;
49578;SDS011;35483;50.828;3.228;2023-06-22T04:30:52;9.52;;;7.07;;
49578;SDS011;35483;50.828;3.228;2023-06-22T04:33:23;8.18;;;6.57;;
49578;SDS011;35483;50.828;3.228;2023-06-22T04:35:48;10.30;;;6.60;;
49578;SDS011;35483;50.828;3.228;2023-06-22T04:38:15;7.85;;;6.30;;
49578;SDS011;35483;50.828;3.228;2023-06-22T04:40:41;8.77;;;6.07;;
49578;SDS011;35483;50.828;3.228;2023-06-22T04:43:07;8.90;;;6.10;;
49578;SDS011;35483;50.828;3.228;2023-06-22T04:45:35;8.43;;;6.20;;
49578;SDS011;35483;50.828;3.228;2023-06-22T04:48:03;7.93;;;6.32;;
49578;SDS011;35483;50.828;3.228;2023-06-22T04:50:29;8.55;;;5.88;;
49578;SDS011;35483;50.828;3.228;2023-06-22T04:52:55;7.80;;;6.00;;
49578;SDS011;35483;50.828;3.228;2023-06-22T04:55:21;8.30;;;6.05;;
49578;SDS011;35483;50.828;3.228;2023-06-22T04:57:47;7.63;;;5.93;;
49578;SDS011;35483;50.828;3.228;2023-06-22T05:00:22;8.35;;;5.95;;
49578;SDS011;35483;50.828;3.228;2023-06-22T05:02:48;6.78;;;5.60;;
49578;SDS011;35483;50.828;3.228;2023-06-22T05:05:15;7.72;;;6.00;;
49578;SDS011;35483;50.828;3.228;2023-06-22T05:07:49;8.00;;;5.82;;
49578;SDS011;35483;50.828;3.228;2023-06-22T05:10:20;6.28;;;5.50;;
49578;SDS011;35483;50.828;3.228;2023-06-22T05:12:46;9.80;;;6.20;;
49578;SDS011;35483;50.828;3.228;2023-06-22T05:15:12;8.05;;;6.00;;
49578;SDS011;35483;50.828;3.228;2023-06-22T05:17:38;8.52;;;6.63;;
49578;SDS011;35483;50.828;3.228;2023-06-22T05:20:10;8.05;;;5.68;;
49578;SDS011;35483;50.828;3.228;2023-06-22T05:22:37;9.05;;;5.53;;
49578;SDS011;35483;50.828;3.228;2023-06-22T05:25:04;9.50;;;6.22;;
49578;SDS011;35483;50.828;3.228;2023-06-22T05:27:33;9.05;;;6.95;;
49578;SDS011;35483;50.828;3.228;2023-06-22T05:29:59;8.13;;;6.22;;
49578;SDS011;35483;50.828;3.228;2023-06-22T05:32:24;8.35;;;6.25;;
49578;SDS011;35483;50.828;3.228;2023-06-22T05:34:50;8.75;;;5.97;;
49578;SDS011;35483;50.828;3.228;2023-06-22T05:37:16;9.75;;;6.68;;
49578;SDS011;35483;50.828;3.228;2023-06-22T05:39:41;8.13;;;5.72;;
49578;SDS011;35483;50.828;3.228;2023-06-22T05:42:07;7.90;;;6.50;;
49578;SDS011;35483;50.828;3.228;2023-06-22T05:44:33;8.48;;;6.35;;
49578;SDS011;35483;50.828;3.228;2023-06-22T05:46:59;10.23;;;6.88;;
49578;SDS011;35483;50.828;3.228;2023-06-22T05:49:25;9.15;;;6.20;;
49578;SDS011;35483;50.828;3.228;2023-06-22T05:51:55;9.27;;;6.47;;
49578;SDS011;35483;50.828;3.228;2023-06-22T05:54:21;8.93;;;6.15;;
49578;SDS011;35483;50.828;3.228;2023-06-22T05:56:47;9.38;;;6.75;;
49578;SDS011;35483;50.828;3.228;2023-06-22T05:59:13;8.07;;;6.55;;
49578;SDS011;35483;50.828;3.228;2023-06-22T06:01:39;10.02;;;6.32;;
49578;SDS011;35483;50.828;3.228;2023-06-22T06:04:05;9.45;;;6.78;;
49578;SDS011;35483;50.828;3.228;2023-06-22T06:06:33;9.20;;;7.05;;
49578;SDS011;35483;50.828;3.228;2023-06-22T06:09:03;9.18;;;7.13;;
49578;SDS011;35483;50.828;3.228;2023-06-22T06:11:29;8.90;;;6.35;;
49578;SDS011;35483;50.828;3.228;2023-06-22T06:13:55;7.68;;;6.28;;
49578;SDS011;35483;50.828;3.228;2023-06-22T06:16:21;8.77;;;6.15;;
49578;SDS011;35483;50.828;3.228;2023-06-22T06:18:47;7.35;;;6.47;;
49578;SDS011;35483;50.828;3.228;2023-06-22T06:21:15;9.23;;;6.75;;
49578;SDS011;35483;50.828;3.228;2023-06-22T06:23:41;10.55;;;6.80;;
49578;SDS011;35483;50.828;3.228;2023-06-22T06:26:07;9.95;;;6.47;;
49578;SDS011;35483;50.828;3.228;2023-06-22T06:28:33;9.13;;;6.50;;
49578;SDS011;35483;50.828;3.228;2023-06-22T06:31:00;9.32;;;6.18;;
49578;SDS011;35483;50.828;3.228;2023-06-22T06:33:25;9.68;;;6.78;;
49578;SDS011;35483;50.828;3.228;2023-06-22T06:35:51;9.55;;;6.70;;
49578;SDS011;35483;50.828;3.228;2023-06-22T06:38:17;10.80;;;7.57;;
49578;SDS011;35483;50.828;3.228;2023-06-22T06:40:43;8.00;;;6.65;;
49578;SDS011;35483;50.828;3.228;2023-06-22T06:43:10;10.38;;;6.85;;
49578;SDS011;35483;50.828;3.228;2023-06-22T06:45:35;12.75;;;7.70;;
49578;SDS011;35483;50.828;3.228;2023-06-22T06:48:01;9.18;;;6.78;;
49578;SDS011;35483;50.828;3.228;2023-06-22T06:50:27;9.90;;;6.80;;
49578;SDS011;35483;50.828;3.228;2023-06-22T06:52:53;11.18;;;7.10;;
49578;SDS011;35483;50.828;3.228;2023-06-22T06:55:19;8.68;;;6.82;;
49578;SDS011;35483;50.828;3.228;2023-06-22T06:57:45;10.35;;;7.43;;
49578;SDS011;35483;50.828;3.228;2023-06-22T07:00:13;9.35;;;7.10;;
49578;SDS011;35483;50.828;3.228;2023-06-22T07:02:41;7.60;;;6.78;;
49578;SDS011;35483;50.828;3.228;2023-06-22T07:05:09;9.82;;;7.30;;
49578;SDS011;35483;50.828;3.228;2023-06-22T07:07:36;7.85;;;6.60;;
49578;SDS011;35483;50.828;3.228;2023-06-22T07:10:02;9.63;;;6.90;;
49578;SDS011;35483;50.828;3.228;2023-06-22T07:12:29;10.88;;;7.10;;
49578;SDS011;35483;50.828;3.228;2023-06-22T07:15:00;11.07;;;7.97;;
49578;SDS011;35483;50.828;3.228;2023-06-22T07:17:33;8.35;;;7.03;;
49578;SDS011;35483;50.828;3.228;2023-06-22T07:20:00;11.57;;;8.60;;
49578;SDS011;35483;50.828;3.228;2023-06-22T07:22:26;10.05;;;8.13;;
49578;SDS011;35483;50.828;3.228;2023-06-22T07:24:52;13.25;;;7.80;;
49578;SDS011;35483;50.828;3.228;2023-06-22T07:27:17;9.75;;;8.40;;
49578;SDS011;35483;50.828;3.228;2023-06-22T07:29:44;12.27;;;8.38;;
49578;SDS011;35483;50.828;3.228;2023-06-22T07:32:10;11.23;;;7.68;;
49578;SDS011;35483;50.828;3.228;2023-06-22T07:34:36;10.38;;;7.40;;
49578;SDS011;35483;50.828;3.228;2023-06-22T07:37:02;9.95;;;7.80;;
49578;SDS011;35483;50.828;3.228;2023-06-22T07:39:29;10.30;;;8.95;;
49578;SDS011;35483;50.828;3.228;2023-06-22T07:41:55;11.48;;;9.13;;
49578;SDS011;35483;50.828;3.228;2023-06-22T07:44:21;13.32;;;9.50;;
49578;SDS011;35483;50.828;3.228;2023-06-22T07:46:46;12.23;;;10.23;;
49578;SDS011;35483;50.828;3.228;2023-06-22T07:49:12;11.57;;;9.60;;
49578;SDS011;35483;50.828;3.228;2023-06-22T07:51:38;11.30;;;8.80;;
49578;SDS011;35483;50.828;3.228;2023-06-22T07:54:04;11.07;;;8.90;;
49578;SDS011;35483;50.828;3.228;2023-06-22T07:56:29;12.50;;;9.68;;
49578;SDS011;35483;50.828;3.228;2023-06-22T07:58:55;12.75;;;9.93;;
49578;SDS011;35483;50.828;3.228;2023-06-22T08:01:23;11.63;;;9.52;;
49578;SDS011;35483;50.828;3.228;2023-06-22T08:03:49;12.50;;;9.50;;
49578;SDS011;35483;50.828;3.228;2023-06-22T08:06:15;11.05;;;8.52;;
49578;SDS011;35483;50.828;3.228;2023-06-22T08:08:41;11.40;;;9.45;;
49578;SDS011;35483;50.828;3.228;2023-06-22T08:11:08;15.68;;;10.20;;
49578;SDS011;35483;50.828;3.228;2023-06-22T08:13:34;11.20;;;9.05;;
49578;SDS011;35483;50.828;3.228;2023-06-22T08:16:00;13.77;;;10.20;;
49578;SDS011;35483;50.828;3.228;2023-06-22T08:18:25;12.50;;;10.23;;
49578;SDS011;35483;50.828;3.228;2023-06-22T08:20:51;13.02;;;9.80;;
49578;SDS011;35483;50.828;3.228;2023-06-22T08:23:17;13.32;;;9.63;;
49578;SDS011;35483;50.828;3.228;2023-06-22T08:25:43;15.75;;;10.85;;
49578;SDS011;35483;50.828;3.228;2023-06-22T08:28:09;14.57;;;11.25;;
49578;SDS011;35483;50.828;3.228;2023-06-22T08:30:34;14.00;;;10.55;;
49578;SDS011;35483;50.828;3.228;2023-06-22T08:33:00;15.75;;;10.80;;
49578;SDS011;35483;50.828;3.228;2023-06-22T08:35:26;14.20;;;11.05;;
49578;SDS011;35483;50.828;3.228;2023-06-22T08:37:52;12.38;;;10.73;;
49578;SDS011;35483;50.828;3.228;2023-06-22T08:40:20;15.90;;;10.70;;
49578;SDS011;35483;50.828;3.228;2023-06-22T08:42:47;17.58;;;11.20;;
49578;SDS011;35483;50.828;3.228;2023-06-22T08:45:15;13.65;;;10.88;;
49578;SDS011;35483;50.828;3.228;2023-06-22T08:47:41;16.52;;;11.70;;
49578;SDS011;35483;50.828;3.228;2023-06-22T08:50:07;15.02;;;10.32;;
49578;SDS011;35483;50.828;3.228;2023-06-22T08:52:34;15.13;;;11.13;;
49578;SDS011;35483;50.828;3.228;2023-06-22T08:55:01;14.93;;;11.18;;
49578;SDS011;35483;50.828;3.228;2023-06-22T08:57:27;13.80;;;11.05;;
49578;SDS011;35483;50.828;3.228;2023-06-22T08:59:54;17.70;;;11.20;;
49578;SDS011;35483;50.828;3.228;2023-06-22T09:02:23;15.73;;;12.23;;
49578;SDS011;35483;50.828;3.228;2023-06-22T09:04:49;14.10;;;12.10;;
49578;SDS011;35483;50.828;3.228;2023-06-22T09:07:20;16.70;;;11.43;;
49578;SDS011;35483;50.828;3.228;2023-06-22T09:09:50;14.82;;;12.40;;
49578;SDS011;35483;50.828;3.228;2023-06-22T09:12:16;15.05;;;12.18;;
49578;SDS011;35483;50.828;3.228;2023-06-22T09:14:42;15.98;;;12.35;;
49578;SDS011;35483;50.828;3.228;2023-06-22T09:17:08;19.90;;;13.63;;
49578;SDS011;35483;50.828;3.228;2023-06-22T09:19:34;16.70;;;12.80;;
49578;SDS011;35483;50.828;3.228;2023-06-22T09:21:59;17.63;;;13.13;;
49578;SDS011;35483;50.828;3.228;2023-06-22T09:24:25;17.17;;;13.15;;
49578;SDS011;35483;50.828;3.228;2023-06-22T09:26:51;14.15;;;12.00;;
49578;SDS011;35483;50.828;3.228;2023-06-22T09:29:17;15.40;;;12.98;;
49578;SDS011;35483;50.828;3.228;2023-06-22T09:31:43;16.30;;;13.13;;
49578;SDS011;35483;50.828;3.228;2023-06-22T09:34:09;17.02;;;13.15;;
49578;SDS011;35483;50.828;3.228;2023-06-22T09:36:35;18.13;;;14.15;;
49578;SDS011;35483;50.828;3.228;2023-06-22T09:39:01;18.65;;;13.68;;
49578;SDS011;35483;50.828;3.228;2023-06-22T09:41:31;17.17;;;13.35;;
49578;SDS011;35483;50.828;3.228;2023-06-22T09:43:56;21.33;;;14.88;;
49578;SDS011;35483;50.828;3.228;2023-06-22T09:46:23;18.10;;;14.35;;
49578;SDS011;35483;50.828;3.228;2023-06-22T09:48:53;18.52;;;14.23;;
49578;SDS011;35483;50.828;3.228;2023-06-22T09:51:18;20.35;;;14.85;;
49578;SDS011;35483;50.828;3.228;2023-06-22T09:53:46;19.40;;;15.38;;
49578;SDS011;35483;50.828;3.228;2023-06-22T09:56:20;18.98;;;14.18;;
49578;SDS011;35483;50.828;3.228;2023-06-22T09:58:53;19.73;;;14.65;;
49578;SDS011;35483;50.828;3.228;2023-06-22T10:01:26;19.58;;;14.35;;
49578;SDS011;35483;50.828;3.228;2023-06-22T10:03:57;17.25;;;14.95;;
49578;SDS011;35483;50.828;3.228;2023-06-22T10:06:24;22.83;;;15.23;;
49578;SDS011;35483;50.828;3.228;2023-06-22T10:08:52;23.52;;;15.07;;
49578;SDS011;35483;50.828;3.228;2023-06-22T10:11:30;24.48;;;15.90;;
49578;SDS011;35483;50.828;3.228;2023-06-22T10:13:56;19.95;;;14.15;;
49578;SDS011;35483;50.828;3.228;2023-06-22T10:16:32;19.40;;;14.25;;
49578;SDS011;35483;50.828;3.228;2023-06-22T10:19:00;19.80;;;14.57;;
49578;SDS011;35483;50.828;3.228;2023-06-22T10:21:26;18.67;;;15.45;;
49578;SDS011;35483;50.828;3.228;2023-06-22T10:23:53;18.63;;;14.43;;
49578;SDS011;35483;50.828;3.228;2023-06-22T10:26:19;20.20;;;15.82;;
49578;SDS011;35483;50.828;3.228;2023-06-22T10:28:45;23.38;;;15.15;;
49578;SDS011;35483;50.828;3.228;2023-06-22T10:31:11;18.95;;;14.75;;
49578;SDS011;35483;50.828;3.228;2023-06-22T10:33:36;20.00;;;15.35;;
49578;SDS011;35483;50.828;3.228;2023-06-22T10:36:02;20.10;;;14.38;;
49578;SDS011;35483;50.828;3.228;2023-06-22T10:38:28;19.65;;;14.55;;
49578;SDS011;35483;50.828;3.228;2023-06-22T10:40:54;18.50;;;15.05;;
49578;SDS011;35483;50.828;3.228;2023-06-22T10:43:20;19.80;;;14.95;;
49578;SDS011;35483;50.828;3.228;2023-06-22T10:45:46;17.88;;;14.77;;
49578;SDS011;35483;50.828;3.228;2023-06-22T10:48:12;18.35;;;14.43;;
49578;SDS011;35483;50.828;3.228;2023-06-22T10:50:37;17.02;;;14.48;;
49578;SDS011;35483;50.828;3.228;2023-06-22T10:53:03;17.90;;;14.32;;
49578;SDS011;35483;50.828;3.228;2023-06-22T10:55:29;22.05;;;15.20;;
49578;SDS011;35483;50.828;3.228;2023-06-22T10:57:54;19.42;;;15.38;;
49578;SDS011;35483;50.828;3.228;2023-06-22T11:00:20;20.80;;;15.52;;
49578;SDS011;35483;50.828;3.228;2023-06-22T11:02:46;19.73;;;15.80;;
49578;SDS011;35483;50.828;3.228;2023-06-22T11:05:12;17.20;;;14.38;;
49578;SDS011;35483;50.828;3.228;2023-06-22T11:07:41;18.45;;;14.65;;
49578;SDS011;35483;50.828;3.228;2023-06-22T11:10:08;18.20;;;14.13;;
49578;SDS011;35483;50.828;3.228;2023-06-22T11:12:34;16.90;;;14.02;;
49578;SDS011;35483;50.828;3.228;2023-06-22T11:15:00;17.75;;;14.13;;
49578;SDS011;35483;50.828;3.228;2023-06-22T11:17:26;17.60;;;14.07;;
49578;SDS011;35483;50.828;3.228;2023-06-22T11:19:52;18.20;;;14.50;;
49578;SDS011;35483;50.828;3.228;2023-06-22T11:22:18;18.60;;;14.48;;
49578;SDS011;35483;50.828;3.228;2023-06-22T11:24:44;18.75;;;14.13;;
49578;SDS011;35483;50.828;3.228;2023-06-22T11:27:09;22.02;;;14.75;;
49578;SDS011;35483;50.828;3.228;2023-06-22T11:29:35;19.95;;;14.43;;
49578;SDS011;35483;50.828;3.228;2023-06-22T11:32:01;21.17;;;15.75;;
49578;SDS011;35483;50.828;3.228;2023-06-22T11:34:27;21.00;;;14.82;;
49578;SDS011;35483;50.828;3.228;2023-06-22T11:36:54;21.35;;;14.75;;
49578;SDS011;35483;50.828;3.228;2023-06-22T11:39:20;18.40;;;14.52;;
49578;SDS011;35483;50.828;3.228;2023-06-22T11:41:46;17.58;;;14.50;;
49578;SDS011;35483;50.828;3.228;2023-06-22T11:44:12;18.20;;;13.90;;
49578;SDS011;35483;50.828;3.228;2023-06-22T11:46:37;17.70;;;14.35;;
49578;SDS011;35483;50.828;3.228;2023-06-22T11:49:03;17.70;;;12.80;;
49578;SDS011;35483;50.828;3.228;2023-06-22T11:51:29;15.75;;;13.73;;
49578;SDS011;35483;50.828;3.228;2023-06-22T11:53:56;17.75;;;13.40;;
49578;SDS011;35483;50.828;3.228;2023-06-22T11:56:23;17.70;;;13.05;;
49578;SDS011;35483;50.828;3.228;2023-06-22T11:58:49;16.55;;;12.65;;
49578;SDS011;35483;50.828;3.228;2023-06-22T12:01:14;16.00;;;12.63;;
49578;SDS011;35483;50.828;3.228;2023-06-22T12:03:40;16.60;;;12.40;;
49578;SDS011;35483;50.828;3.228;2023-06-22T12:06:08;16.35;;;12.70;;
49578;SDS011;35483;50.828;3.228;2023-06-22T12:08:34;16.40;;;13.35;;
49578;SDS011;35483;50.828;3.228;2023-06-22T12:11:00;17.63;;;14.60;;
49578;SDS011;35483;50.828;3.228;2023-06-22T12:13:26;16.02;;;13.32;;
49578;SDS011;35483;50.828;3.228;2023-06-22T12:15:52;16.65;;;12.85;;
49578;SDS011;35483;50.828;3.228;2023-06-22T12:18:18;17.85;;;13.88;;
49578;SDS011;35483;50.828;3.228;2023-06-22T12:20:46;15.00;;;12.27;;
49578;SDS011;35483;50.828;3.228;2023-06-22T12:23:12;18.13;;;13.30;;
49578;SDS011;35483;50.828;3.228;2023-06-22T12:25:38;14.52;;;11.70;;
49578;SDS011;35483;50.828;3.228;2023-06-22T12:28:04;17.27;;;11.93;;
49578;SDS011;35483;50.828;3.228;2023-06-22T12:30:30;16.90;;;12.60;;
49578;SDS011;35483;50.828;3.228;2023-06-22T12:32:57;15.77;;;12.70;;
49578;SDS011;35483;50.828;3.228;2023-06-22T12:35:23;16.98;;;12.88;;
49578;SDS011;35483;50.828;3.228;2023-06-22T12:37:49;15.30;;;12.00;;
49578;SDS011;35483;50.828;3.228;2023-06-22T12:40:15;16.35;;;12.75;;
49578;SDS011;35483;50.828;3.228;2023-06-22T12:42:41;19.98;;;13.63;;
49578;SDS011;35483;50.828;3.228;2023-06-22T12:45:08;19.30;;;12.93;;
49578;SDS011;35483;50.828;3.228;2023-06-22T12:47:34;16.27;;;13.02;;
49578;SDS011;35483;50.828;3.228;2023-06-22T12:50:00;16.05;;;12.82;;
49578;SDS011;35483;50.828;3.228;2023-06-22T12:52:26;16.33;;;13.23;;
49578;SDS011;35483;50.828;3.228;2023-06-22T12:54:52;17.08;;;13.05;;
49578;SDS011;35483;50.828;3.228;2023-06-22T12:57:17;18.77;;;13.65;;
49578;SDS011;35483;50.828;3.228;2023-06-22T12:59:44;16.55;;;12.32;;
49578;SDS011;35483;50.828;3.228;2023-06-22T13:02:10;16.73;;;13.05;;
49578;SDS011;35483;50.828;3.228;2023-06-22T13:04:36;17.10;;;13.05;;
49578;SDS011;35483;50.828;3.228;2023-06-22T13:07:02;15.25;;;13.60;;
49578;SDS011;35483;50.828;3.228;2023-06-22T13:09:28;16.65;;;12.52;;
49578;SDS011;35483;50.828;3.228;2023-06-22T13:11:53;17.40;;;13.85;;
49578;SDS011;35483;50.828;3.228;2023-06-22T13:14:19;14.75;;;11.75;;
49578;SDS011;35483;50.828;3.228;2023-06-22T13:16:45;18.70;;;13.13;;
49578;SDS011;35483;50.828;3.228;2023-06-22T13:19:11;17.92;;;14.90;;
49578;SDS011;35483;50.828;3.228;2023-06-22T13:21:36;19.92;;;13.77;;
49578;SDS011;35483;50.828;3.228;2023-06-22T13:24:02;22.48;;;14.63;;
49578;SDS011;35483;50.828;3.228;2023-06-22T13:26:28;18.48;;;14.82;;
49578;SDS011;35483;50.828;3.228;2023-06-22T13:28:54;18.90;;;14.05;;
49578;SDS011;35483;50.828;3.228;2023-06-22T13:31:20;18.50;;;14.38;;
49578;SDS011;35483;50.828;3.228;2023-06-22T13:33:46;18.73;;;13.82;;
49578;SDS011;35483;50.828;3.228;2023-06-22T13:36:13;20.77;;;13.30;;
49578;SDS011;35483;50.828;3.228;2023-06-22T13:38:39;20.48;;;14.20;;
49578;SDS011;35483;50.828;3.228;2023-06-22T13:41:05;17.90;;;13.00;;
49578;SDS011;35483;50.828;3.228;2023-06-22T13:43:31;15.98;;;13.27;;
49578;SDS011;35483;50.828;3.228;2023-06-22T13:45:57;19.58;;;13.13;;
49578;SDS011;35483;50.828;3.228;2023-06-22T13:48:23;17.85;;;12.07;;
49578;SDS011;35483;50.828;3.228;2023-06-22T13:50:52;18.38;;;12.60;;
49578;SDS011;35483;50.828;3.228;2023-06-22T13:53:18;16.92;;;12.02;;
49578;SDS011;35483;50.828;3.228;2023-06-22T13:55:43;17.70;;;12.13;;
49578;SDS011;35483;50.828;3.228;2023-06-22T13:58:09;13.55;;;10.50;;
49578;SDS011;35483;50.828;3.228;2023-06-22T14:00:35;17.10;;;10.77;;
49578;SDS011;35483;50.828;3.228;2023-06-22T14:03:01;13.38;;;10.02;;
49578;SDS011;35483;50.828;3.228;2023-06-22T14:05:27;14.35;;;10.70;;
49578;SDS011;35483;50.828;3.228;2023-06-22T14:07:53;11.73;;;9.35;;
49578;SDS011;35483;50.828;3.228;2023-06-22T14:10:19;15.23;;;9.18;;
49578;SDS011;35483;50.828;3.228;2023-06-22T14:12:45;15.45;;;10.13;;
49578;SDS011;35483;50.828;3.228;2023-06-22T14:15:11;11.63;;;9.88;;
49578;SDS011;35483;50.828;3.228;2023-06-22T14:17:36;13.45;;;10.00;;
49578;SDS011;35483;50.828;3.228;2023-06-22T14:20:02;13.98;;;10.75;;
49578;SDS011;35483;50.828;3.228;2023-06-22T14:22:30;14.50;;;10.68;;
49578;SDS011;35483;50.828;3.228;2023-06-22T14:24:56;11.70;;;8.88;;
49578;SDS011;35483;50.828;3.228;2023-06-22T14:27:24;10.75;;;8.07;;
49578;SDS011;35483;50.828;3.228;2023-06-22T14:29:50;12.13;;;7.60;;
49578;SDS011;35483;50.828;3.228;2023-06-22T14:32:17;11.90;;;8.50;;
49578;SDS011;35483;50.828;3.228;2023-06-22T14:34:43;11.65;;;8.50;;
49578;SDS011;35483;50.828;3.228;2023-06-22T14:37:09;12.40;;;9.45;;